Time;durP1;ratioP1;P1;durP2;ratioP2;P2;SDS_P1;SDS_P2;PMS_P1;PMS_P2;Temp;Humidity;BMP_temperature;BMP_pressure;BME280_temperature;BME280_humidity;BME280_pressure;Samples;Min_cycle;Max_cycle;Signal;HPM_P1;HPM_P2
2021/04/19 00:02:06;;;;;;;3.40;3.30;;;;;;;9.14;67.21;101522.72;4422342;32;20148;-64
2021/04/19 00:04:31;;;;;;;3.40;3.30;;;;;;;9.40;67.82;101594.31;4420615;32;20060;-63
2021/04/19 00:06:57;;;;;;;3.50;3.40;;;;;;;9.45;67.36;101579.31;4425541;32;20466;-65
2021/04/19 00:09:22;;;;;;;3.60;3.50;;;;;;;9.30;68.01;101572.84;4420332;32;20087;-64
2021/04/19 00:11:47;;;;;;;3.40;3.30;;;;;;;8.81;67.79;101485.38;4418865;32;20080;-64
2021/04/19 00:14:13;;;;;;;3.60;3.50;;;;;;;9.38;66.93;101578.66;4420641;32;20853;-65
2021/04/19 00:16:38;;;;;;;3.95;3.75;;;;;;;9.32;68.32;101573.63;4419928;32;20091;-64
2021/04/19 00:19:04;;;;;;;4.55;4.35;;;;;;;9.32;67.18;101570.13;4423137;32;20132;-63
2021/04/19 00:21:29;;;;;;;3.60;3.50;;;;;;;9.23;67.67;101565.22;4421525;32;20113;-64
2021/04/19 00:23:54;;;;;;;3.80;3.60;;;;;;;9.21;68.22;101578.34;4423329;32;20134;-62
2021/04/19 00:26:20;;;;;;;3.92;3.72;;;;;;;8.62;67.33;101489.47;4419530;32;20684;-64
2021/04/19 00:28:45;;;;;;;3.30;3.20;;;;;;;9.20;68.35;101574.03;4421649;32;20109;-64
2021/04/19 00:31:10;;;;;;;3.37;3.28;;;;;;;9.15;68.89;101566.31;4421201;32;20072;-63
2021/04/19 00:33:36;;;;;;;4.10;3.90;;;;;;;9.15;68.75;101578.56;4426837;32;20091;-64
2021/04/19 00:36:01;;;;;;;3.28;3.17;;;;;;;8.63;68.09;101486.81;4422547;32;20188;-64
2021/04/19 00:38:27;;;;;;;3.42;3.33;;;;;;;9.17;67.83;101577.59;4426098;32;20072;-63
2021/04/19 00:40:54;;;;;;;3.65;3.55;;;;;;;9.11;69.01;101577.78;4424752;32;20146;-64
2021/04/19 00:43:20;;;;;;;3.90;3.70;;;;;;;9.08;68.42;101577.91;4423241;32;20848;-64
2021/04/19 00:45:47;;;;;;;3.78;3.67;;;;;;;9.03;69.27;101571.94;4418947;32;20052;-63
2021/04/19 00:48:12;;;;;;;3.50;3.40;;;;;;;9.04;68.68;101572.78;4431377;32;20608;-64
2021/04/19 00:50:37;;;;;;;3.60;3.50;;;;;;;9.04;68.39;101572.78;4419876;32;20069;-63
2021/04/19 00:53:05;;;;;;;3.72;3.62;;;;;;;8.94;69.61;101573.09;4426056;32;20088;-63
2021/04/19 00:55:30;;;;;;;4.47;4.28;;;;;;;8.98;68.71;101571.25;4422308;32;20068;-63
2021/04/19 00:57:56;;;;;;;3.50;3.40;;;;;;;8.96;69.44;101570.41;4423811;32;20648;-64
2021/04/19 01:00:29;;;;;;;4.37;4.18;;;;;;;8.94;68.73;101564.38;4422562;32;20064;-62
2021/04/19 01:02:55;;;;;;;3.40;3.30;;;;;;;8.93;69.45;101571.38;4425115;32;20072;-66
2021/04/19 01:05:25;;;;;;;3.50;3.40;;;;;;;8.97;68.45;101564.28;4426141;32;20137;-65
2021/04/19 01:07:51;;;;;;;3.87;3.72;;;;;;;8.91;68.55;101554.00;4419426;32;20071;-63
2021/04/19 01:10:16;;;;;;;3.50;3.40;;;;;;;9.00;68.24;101564.19;4425363;32;20086;-64
2021/04/19 01:12:42;;;;;;;3.62;3.42;;;;;;;8.85;69.27;101541.13;4422146;32;20339;-62
2021/04/19 01:15:08;;;;;;;3.75;3.60;;;;;;;8.83;70.35;101561.25;4423749;32;20512;-64
2021/04/19 01:17:33;;;;;;;3.40;3.30;;;;;;;8.83;69.40;101562.09;4419518;32;20191;-63
2021/04/19 01:19:58;;;;;;;3.40;3.30;;;;;;;8.78;70.00;101551.78;4426845;32;20083;-62
2021/04/19 01:22:24;;;;;;;3.67;3.58;;;;;;;8.87;69.66;101563.72;4422851;32;20068;-63
2021/04/19 01:24:49;;;;;;;3.60;3.50;;;;;;;8.83;70.01;101566.47;4426411;32;20079;-64
2021/04/19 01:27:14;;;;;;;3.47;3.37;;;;;;;8.81;70.23;101568.28;4421873;32;20806;-64
2021/04/19 01:29:40;;;;;;;4.20;4.00;;;;;;;8.78;70.26;101557.00;4427136;32;20064;-64
2021/04/19 01:32:06;;;;;;;3.53;3.40;;;;;;;8.75;70.71;101564.09;4426088;32;20079;-64
2021/04/19 01:34:31;;;;;;;3.65;3.53;;;;;;;8.68;70.04;101563.44;4425926;32;20072;-64
2021/04/19 01:36:56;;;;;;;4.10;3.90;;;;;;;8.72;69.48;101553.72;4423291;32;20068;-63
2021/04/19 01:39:22;;;;;;;3.72;3.60;;;;;;;8.79;69.73;101558.72;4427469;32;20076;-63
2021/04/19 01:41:47;;;;;;;3.58;3.47;;;;;;;8.80;70.11;101556.97;4426173;32;20474;-65
2021/04/19 01:44:13;;;;;;;3.62;3.53;;;;;;;8.81;69.45;101555.22;4417748;32;20171;-64
2021/04/19 01:46:38;;;;;;;3.50;3.40;;;;;;;8.60;70.25;101539.25;4421496;32;20115;-64
2021/04/19 01:49:12;;;;;;;3.58;3.47;;;;;;;8.60;70.00;101549.72;4423718;32;20552;-62
2021/04/19 01:51:38;;;;;;;3.60;3.50;;;;;;;8.59;70.41;101546.22;4425993;32;20652;-63
2021/04/19 01:54:03;;;;;;;3.87;3.67;;;;;;;8.64;69.75;101555.69;4423469;32;20090;-63
2021/04/19 01:56:28;;;;;;;3.42;3.33;;;;;;;8.65;69.55;101554.81;4425702;32;20057;-63
2021/04/19 01:58:54;;;;;;;3.60;3.50;;;;;;;8.49;70.00;101557.03;4421316;32;20080;-64
2021/04/19 02:01:19;;;;;;;3.80;3.60;;;;;;;8.46;70.48;101555.37;4428376;32;20071;-64
2021/04/19 02:03:50;;;;;;;3.58;3.47;;;;;;;8.44;70.28;101558.91;4422121;32;20059;-64
2021/04/19 02:06:47;;;;;;;3.60;3.40;;;;;;;8.33;70.79;101541.75;4451793;32;20819;-65
2021/04/19 02:09:16;;;;;;;3.60;3.50;;;;;;;8.36;70.25;101557.38;4439321;32;20623;-64
2021/04/19 02:12:00;;;;;;;3.30;3.20;;;;;;;8.29;70.83;101555.81;4432693;32;20091;-65
2021/04/19 02:14:42;;;;;;;3.40;3.30;;;;;;;8.27;71.05;101552.37;4447597;32;20219;-64
2021/04/19 02:17:22;;;;;;;3.37;3.28;;;;;;;8.26;70.24;101539.34;4437297;32;20604;-64
2021/04/19 02:20:13;;;;;;;3.50;3.40;;;;;;;8.14;71.67;101553.66;4422317;32;20127;-63
2021/04/19 02:23:00;;;;;;;3.15;3.05;;;;;;;8.14;71.46;101556.28;4437681;32;20076;-64
2021/04/19 02:25:39;;;;;;;3.30;3.20;;;;;;;8.17;70.73;101562.25;4431897;32;20787;-65
2021/04/19 02:28:09;;;;;;;3.30;3.20;;;;;;;8.10;71.08;101545.03;4432184;32;20574;-65
2021/04/19 02:30:35;;;;;;;3.50;3.40;;;;;;;8.12;71.33;101556.31;4425146;32;20079;-64
2021/04/19 02:33:00;;;;;;;3.40;3.30;;;;;;;7.94;71.23;101544.59;4433930;32;20060;-64
2021/04/19 02:35:26;;;;;;;3.30;3.20;;;;;;;7.93;72.17;101557.72;4419477;32;20381;-64
2021/04/19 02:37:52;;;;;;;3.40;3.30;;;;;;;7.95;71.25;101555.91;4420488;32;20064;-64
2021/04/19 02:40:18;;;;;;;3.37;3.28;;;;;;;7.45;71.44;101472.78;4423470;32;20083;-65
2021/04/19 02:42:45;;;;;;;3.55;3.45;;;;;;;7.88;71.78;101554.38;4425780;32;20124;-63
2021/04/19 02:45:12;;;;;;;3.22;3.12;;;;;;;7.83;71.84;101561.47;4422336;32;20079;-63
2021/04/19 02:47:39;;;;;;;3.40;3.30;;;;;;;7.89;71.58;101561.31;4422737;32;20078;-63
2021/04/19 02:50:05;;;;;;;3.25;3.15;;;;;;;7.82;70.84;101564.97;4425375;32;20100;-63
2021/04/19 02:52:32;;;;;;;3.30;3.20;;;;;;;7.83;71.67;101559.72;4425035;32;20605;-64
2021/04/19 02:54:57;;;;;;;3.87;3.70;;;;;;;7.85;71.51;101563.13;4421929;32;20064;-63
2021/04/19 02:57:27;;;;;;;3.15;3.05;;;;;;;7.74;71.73;101546.91;4427665;32;20078;-64
2021/04/19 02:59:53;;;;;;;3.83;3.62;;;;;;;7.72;71.56;101560.00;4421364;32;20075;-63
2021/04/19 03:02:20;;;;;;;3.70;3.50;;;;;;;7.72;71.36;101559.16;4432678;32;20116;-64
2021/04/19 03:04:45;;;;;;;3.20;3.10;;;;;;;7.78;71.21;101564.22;4428071;32;20162;-64
2021/04/19 03:07:11;;;;;;;3.20;3.10;;;;;;;7.70;71.13;101563.56;4422137;32;20071;-64
2021/04/19 03:09:41;;;;;;;3.50;3.40;;;;;;;7.59;71.42;101572.50;4438259;32;20125;-64
2021/04/19 03:12:06;;;;;;;3.17;3.08;;;;;;;7.56;71.46;101569.16;4419961;32;20841;-64
2021/04/19 03:14:34;;;;;;;3.25;3.15;;;;;;;7.59;71.99;101569.91;4423403;32;20064;-63
2021/04/19 03:17:05;;;;;;;3.20;3.10;;;;;;;7.68;71.10;101578.44;4424595;32;20093;-64
2021/04/19 03:19:30;;;;;;;3.30;3.20;;;;;;;7.52;71.48;101563.13;4421698;32;20064;-63
2021/04/19 03:21:56;;;;;;;3.20;3.10;;;;;;;7.49;71.62;101576.25;4420151;32;20580;-63
2021/04/19 03:24:21;;;;;;;3.80;3.60;;;;;;;7.44;72.57;101572.94;4435484;32;20074;-64
2021/04/19 03:26:47;;;;;;;3.10;3.00;;;;;;;7.42;72.76;101566.00;4433292;32;20068;-64
2021/04/19 03:29:12;;;;;;;3.30;3.20;;;;;;;7.49;72.29;101563.19;4438919;32;20113;-65
2021/04/19 03:31:39;;;;;;;3.40;3.30;;;;;;;7.36;72.19;101540.94;4433990;32;20194;-65
2021/04/19 03:34:10;;;;;;;3.30;3.20;;;;;;;7.46;73.14;101573.75;4431076;32;20706;-64
2021/04/19 03:36:36;;;;;;;3.87;3.70;;;;;;;7.53;72.83;101564.84;4436793;31;20068;-64
2021/04/19 03:39:02;;;;;;;3.72;3.60;;;;;;;7.43;73.22;101579.03;4432178;32;20091;-63
2021/04/19 03:41:27;;;;;;;3.70;3.50;;;;;;;7.27;74.47;101555.03;4439411;31;20107;-64
2021/04/19 03:43:54;;;;;;;3.40;3.20;;;;;;;7.23;75.10;101581.28;4438082;32;20757;-64
2021/04/19 03:46:20;;;;;;;3.12;3.03;;;;;;;7.30;75.23;101572.41;4434907;32;20067;-63
2021/04/19 03:48:45;;;;;;;3.28;3.17;;;;;;;7.07;75.56;101526.81;4433650;32;20069;-64
2021/04/19 03:51:13;;;;;;;3.53;3.28;;;;;;;7.24;76.85;101567.34;4434848;31;20052;-64
2021/04/19 03:53:38;;;;;;;3.35;3.20;;;;;;;7.23;77.67;101565.63;4432421;32;20147;-64
2021/04/19 03:56:04;;;;;;;3.20;3.10;;;;;;;7.27;77.28;101565.50;4439203;32;20063;-63
2021/04/19 03:58:31;;;;;;;3.30;3.20;;;;;;;6.17;77.17;101378.53;4431432;32;20166;-63
2021/04/19 04:00:57;;;;;;;3.30;3.20;;;;;;;7.32;77.96;101568.00;4438994;31;20077;-63
2021/04/19 04:03:22;;;;;;;3.20;3.10;;;;;;;7.29;78.05;101566.31;4435736;32;20569;-64
2021/04/19 04:05:48;;;;;;;3.10;3.00;;;;;;;7.10;78.87;101567.69;4437861;31;20094;-64
2021/04/19 04:08:13;;;;;;;3.20;3.10;;;;;;;7.14;79.51;101567.56;4432422;32;20064;-64
2021/04/19 04:10:39;;;;;;;3.95;3.75;;;;;;;7.22;78.57;101564.75;4434359;31;20450;-63
2021/04/19 04:13:04;;;;;;;4.65;4.45;;;;;;;7.13;79.34;101568.44;4433841;31;20067;-63
2021/04/19 04:15:29;;;;;;;3.70;3.50;;;;;;;7.05;79.56;101572.97;4434613;31;20902;-64
2021/04/19 04:17:55;;;;;;;3.83;3.60;;;;;;;7.15;79.07;101571.00;4435511;32;20083;-64
2021/04/19 04:20:20;;;;;;;3.03;2.92;;;;;;;7.11;79.10;101559.78;4435415;31;20551;-64
2021/04/19 04:22:45;;;;;;;3.53;3.42;;;;;;;7.10;79.81;101572.91;4434506;32;20055;-64
2021/04/19 04:25:11;;;;;;;3.12;3.03;;;;;;;7.18;78.96;101574.41;4431630;32;20120;-67
2021/04/19 04:27:37;;;;;;;3.40;3.30;;;;;;;7.19;79.16;101575.25;4439601;32;20080;-68
2021/04/19 04:30:03;;;;;;;3.10;3.00;;;;;;;7.18;79.05;101569.19;4435016;32;20060;-68
2021/04/19 04:32:28;;;;;;;3.20;3.10;;;;;;;7.19;79.02;101576.13;4438604;32;20319;-67
2021/04/19 04:34:53;;;;;;;3.55;3.45;;;;;;;7.23;78.48;101569.06;4431925;32;20143;-67
2021/04/19 04:37:19;;;;;;;2.97;2.87;;;;;;;7.04;79.88;101576.50;4436356;32;20087;-64
2021/04/19 04:39:44;;;;;;;3.37;3.28;;;;;;;7.05;79.48;101570.38;4432876;32;20185;-65
2021/04/19 04:42:12;;;;;;;3.65;3.45;;;;;;;6.96;79.64;101573.22;4437993;32;20210;-65
2021/04/19 04:44:39;;;;;;;3.30;3.20;;;;;;;7.02;80.43;101574.84;4435493;31;20083;-64
2021/04/19 04:47:46;;;;;;;3.20;3.10;;;;;;;6.87;80.20;101576.03;4434612;32;20926;-63
2021/04/19 04:50:20;;;;;;;3.10;3.00;;;;;;;6.74;81.68;101588.50;4404244;32;20070;-63
2021/04/19 04:53:07;;;;;;;3.45;3.35;;;;;;;6.58;82.14;101561.88;4435037;32;20064;-64
2021/04/19 04:55:32;;;;;;;3.15;3.05;;;;;;;6.76;82.15;101582.34;4431186;32;20772;-64
2021/04/19 04:57:57;;;;;;;3.30;3.10;;;;;;;6.75;81.22;101585.81;4439437;32;20095;-63
2021/04/19 05:00:23;;;;;;;3.17;3.08;;;;;;;6.78;81.63;101585.78;4435217;32;20093;-64
2021/04/19 05:02:49;;;;;;;3.28;3.17;;;;;;;6.51;82.14;101563.75;4435521;32;20459;-63
2021/04/19 05:05:14;;;;;;;3.42;3.33;;;;;;;6.61;82.78;101597.47;4433010;31;20745;-64
2021/04/19 05:07:40;;;;;;;3.33;3.15;;;;;;;6.64;82.90;101582.63;4434459;32;20082;-64
2021/04/19 05:10:06;;;;;;;3.37;3.28;;;;;;;6.67;82.70;101584.28;4432743;31;20366;-63
2021/04/19 05:12:31;;;;;;;3.40;3.30;;;;;;;6.68;82.14;101594.69;4433645;31;20060;-63
2021/04/19 05:15:01;;;;;;;3.20;3.10;;;;;;;6.73;82.56;101598.03;4436559;32;20198;-64
2021/04/19 05:17:27;;;;;;;3.55;3.45;;;;;;;6.71;82.96;101599.84;4444463;32;20064;-66
2021/04/19 05:19:52;;;;;;;3.80;3.58;;;;;;;6.74;82.44;101597.16;4433021;32;20070;-64
2021/04/19 05:22:18;;;;;;;3.60;3.30;;;;;;;6.73;82.44;101571.97;4443210;32;20080;-64
2021/04/19 05:24:44;;;;;;;3.33;3.22;;;;;;;6.88;83.17;101593.41;4435814;32;20067;-64
2021/04/19 05:27:10;;;;;;;3.03;2.92;;;;;;;6.88;81.68;101590.81;4433055;32;20544;-64
2021/04/19 05:29:36;;;;;;;3.33;3.22;;;;;;;6.85;82.10;101588.25;4449455;32;20731;-64
2021/04/19 05:32:01;;;;;;;3.30;3.20;;;;;;;6.77;82.53;101586.66;4428602;32;20240;-64
2021/04/19 05:34:27;;;;;;;3.50;3.30;;;;;;;6.84;82.93;101591.75;4433830;32;20071;-64
2021/04/19 05:36:52;;;;;;;3.60;3.50;;;;;;;6.81;82.66;101594.44;4433742;32;20071;-64
2021/04/19 05:39:17;;;;;;;3.45;3.35;;;;;;;6.82;82.55;101593.53;4434950;32;20091;-64
2021/04/19 05:41:43;;;;;;;3.33;3.22;;;;;;;6.88;81.90;101599.47;4427816;32;20087;-64
2021/04/19 05:44:08;;;;;;;3.62;3.42;;;;;;;6.68;82.48;101607.75;4431036;32;20098;-64
2021/04/19 05:46:34;;;;;;;4.35;4.15;;;;;;;6.71;82.20;101615.47;4428634;32;20064;-63
2021/04/19 05:48:59;;;;;;;3.37;3.28;;;;;;;6.77;82.69;101612.75;4432354;32;20087;-63
2021/04/19 05:51:27;;;;;;;3.83;3.62;;;;;;;6.83;82.73;101626.56;4434832;32;20592;-64
2021/04/19 05:53:54;;;;;;;3.60;3.40;;;;;;;6.77;82.80;101607.53;4438613;32;20098;-64
2021/04/19 05:56:29;;;;;;;3.40;3.20;;;;;;;6.78;82.48;101618.84;4436556;31;20086;-63
2021/04/19 05:59:01;;;;;;;3.50;3.40;;;;;;;6.80;82.83;101619.66;4433960;32;20668;-63
2021/04/19 06:01:26;;;;;;;3.25;3.15;;;;;;;6.62;83.59;101630.50;4459633;31;20063;-64
2021/04/19 06:04:00;;;;;;;4.12;3.87;;;;;;;6.47;83.84;101632.50;4433892;32;20125;-64
2021/04/19 06:06:53;;;;;;;3.00;2.90;;;;;;;6.48;84.19;101633.37;4447600;32;20540;-63
2021/04/19 06:09:20;;;;;;;;;;;;;;;6.56;83.81;101629.72;4446552;32;20075;-64
2021/04/19 06:11:54;;;;;;;3.08;2.97;;;;;;;6.43;83.30;101617.81;4446552;31;20629;-62
2021/04/19 06:14:25;;;;;;;3.20;3.10;;;;;;;6.47;84.12;101627.28;4446881;32;20214;-64
2021/04/19 06:16:50;;;;;;;3.60;3.50;;;;;;;6.57;83.86;101627.97;4434261;32;20845;-63
2021/04/19 06:19:16;;;;;;;3.25;3.15;;;;;;;5.56;83.54;101490.06;4433351;32;20059;-64
2021/04/19 06:21:42;;;;;;;3.05;2.95;;;;;;;6.67;83.86;101626.03;4432661;32;20470;-63
2021/04/19 06:24:08;;;;;;;4.10;3.90;;;;;;;6.78;83.63;101632.72;4430827;32;20640;-63
2021/04/19 06:26:33;;;;;;;3.30;3.20;;;;;;;5.70;83.19;101454.19;4433904;32;20063;-64
2021/04/19 06:28:59;;;;;;;3.20;3.10;;;;;;;6.88;83.56;101624.72;4433536;32;21000;-64
2021/04/19 06:31:24;;;;;;;3.80;3.60;;;;;;;6.98;82.77;101623.63;4432255;31;20080;-64
2021/04/19 06:34:10;;;;;;;3.30;3.20;;;;;;;7.14;82.69;101626.75;4429989;32;20084;-64
2021/04/19 06:36:40;;;;;;;3.10;3.00;;;;;;;7.20;82.39;101624.00;4447015;32;21087;-64
2021/04/19 06:39:07;;;;;;;3.15;3.05;;;;;;;7.12;82.66;101613.72;4433209;32;20070;-64
2021/04/19 06:41:32;;;;;;;3.10;3.00;;;;;;;7.17;82.66;101624.03;4436930;32;20123;-64
2021/04/19 06:43:58;;;;;;;4.45;4.25;;;;;;;7.25;83.10;101616.03;4433614;31;20067;-64
2021/04/19 06:46:33;;;;;;;3.20;3.10;;;;;;;7.31;82.92;101632.41;4434732;32;20068;-64
2021/04/19 06:48:59;;;;;;;3.40;3.30;;;;;;;7.41;82.43;101630.44;4433689;31;20099;-64
2021/04/19 06:51:24;;;;;;;3.20;3.10;;;;;;;7.49;82.05;101632.88;4433139;31;20883;-64
2021/04/19 06:53:51;;;;;;;3.20;3.10;;;;;;;7.52;81.76;101628.44;4435619;32;20067;-64
2021/04/19 06:56:17;;;;;;;3.85;3.65;;;;;;;7.51;82.49;101633.69;4435578;32;20064;-64
2021/04/19 06:58:42;;;;;;;3.65;3.45;;;;;;;7.37;82.28;101642.72;4434631;32;20087;-64
2021/04/19 07:01:07;;;;;;;3.30;3.20;;;;;;;7.02;83.86;101643.53;4433223;32;20087;-64
2021/04/19 07:03:33;;;;;;;3.30;3.20;;;;;;;7.08;83.85;101632.97;4438334;32;21539;-64
2021/04/19 07:05:58;;;;;;;3.47;3.28;;;;;;;7.16;84.47;101641.47;4431230;32;20075;-64
2021/04/19 07:08:31;;;;;;;3.30;3.20;;;;;;;7.07;83.36;101638.19;4431080;32;20672;-65
2021/04/19 07:11:06;;;;;;;3.25;3.15;;;;;;;6.97;84.28;101640.16;4434986;32;20064;-64
2021/04/19 07:13:31;;;;;;;3.40;3.30;;;;;;;6.93;84.73;101635.91;4434660;31;20064;-63
2021/04/19 07:15:57;;;;;;;3.33;3.22;;;;;;;7.10;84.71;101633.78;4429685;32;20160;-63
2021/04/19 07:18:22;;;;;;;3.42;3.33;;;;;;;7.23;84.82;101620.44;4433809;32;20063;-64
2021/04/19 07:20:48;;;;;;;3.78;3.67;;;;;;;7.15;84.48;101616.25;4430726;32;22774;-64
2021/04/19 07:23:13;;;;;;;3.83;3.62;;;;;;;7.33;84.23;101627.16;4435291;32;20124;-66
2021/04/19 07:25:39;;;;;;;3.20;3.10;;;;;;;6.46;84.34;101507.38;4415029;32;20072;-65
2021/04/19 07:28:05;;;;;;;3.30;3.20;;;;;;;7.26;84.20;101623.00;4438718;31;20090;-64
2021/04/19 07:30:30;;;;;;;3.30;3.20;;;;;;;7.42;83.89;101631.28;4434022;32;20072;-65
2021/04/19 07:32:56;;;;;;;3.40;3.30;;;;;;;7.54;83.54;101633.63;4430056;31;20087;-65
2021/04/19 07:35:25;;;;;;;3.30;3.20;;;;;;;7.18;83.12;101633.59;4427047;32;20084;-65
2021/04/19 07:37:58;;;;;;;3.22;3.12;;;;;;;7.14;84.50;101624.13;4428010;31;20067;-65
2021/04/19 07:40:27;;;;;;;3.47;3.37;;;;;;;7.04;84.70;101622.63;4446938;32;20162;-66
2021/04/19 07:43:12;;;;;;;3.97;3.67;;;;;;;7.11;84.89;101618.97;4429786;32;20075;-65
2021/04/19 07:46:07;;;;;;;3.40;3.30;;;;;;;6.96;85.05;101615.81;4441769;32;20126;-64
2021/04/19 07:48:34;;;;;;;3.45;3.35;;;;;;;7.15;85.85;101610.16;4464657;31;20611;-66
2021/04/19 07:50:59;;;;;;;3.70;3.50;;;;;;;7.22;83.78;101610.88;4431543;32;20099;-65
2021/04/19 07:53:25;;;;;;;3.12;3.03;;;;;;;7.30;83.54;101609.81;4429867;32;21078;-65
2021/04/19 07:55:52;;;;;;;3.65;3.55;;;;;;;7.38;82.68;101610.50;4431690;31;20091;-65
2021/04/19 07:58:23;;;;;;;3.30;3.20;;;;;;;7.20;83.50;101603.09;4429773;32;20174;-65
2021/04/19 08:00:49;;;;;;;3.30;3.20;;;;;;;7.26;83.42;101612.56;4432352;32;20102;-63
2021/04/19 08:03:16;;;;;;;3.50;3.40;;;;;;;7.53;83.33;101619.69;4429128;32;20130;-64
2021/04/19 08:05:48;;;;;;;3.10;3.00;;;;;;;7.82;82.73;101619.84;4431289;31;20080;-66
2021/04/19 08:08:14;;;;;;;3.85;3.60;;;;;;;7.94;82.08;101580.34;4441644;32;20079;-65
2021/04/19 08:10:41;;;;;;;3.50;3.40;;;;;;;8.26;81.12;101617.81;4431940;32;20231;-66
2021/04/19 08:13:14;;;;;;;3.30;3.20;;;;;;;8.55;80.38;101617.03;4430152;32;20182;-64
2021/04/19 08:15:41;;;;;;;3.50;3.40;;;;;;;8.82;80.00;101617.97;4443595;32;20183;-64
2021/04/19 08:18:13;;;;;;;3.62;3.50;;;;;;;8.50;80.24;101596.22;4433030;32;20829;-66
2021/04/19 08:20:49;;;;;;;3.60;3.50;;;;;;;8.47;79.72;101619.00;4433495;32;20509;-63
2021/04/19 08:23:14;;;;;;;3.92;3.75;;;;;;;8.56;78.71;101623.97;4431202;31;20076;-65
2021/04/19 08:25:41;;;;;;;3.67;3.58;;;;;;;8.39;79.94;101620.03;4432046;32;20068;-66
2021/04/19 08:28:15;;;;;;;4.03;3.83;;;;;;;8.33;78.94;101569.66;4429927;31;20607;-66
2021/04/19 08:30:42;;;;;;;3.95;3.75;;;;;;;8.74;79.13;101631.28;4443260;32;20957;-66
2021/04/19 08:33:07;;;;;;;3.70;3.60;;;;;;;8.39;79.86;101630.50;4429650;31;20103;-66
2021/04/19 08:35:33;;;;;;;3.60;3.50;;;;;;;8.51;79.91;101623.25;4428350;32;20088;-66
2021/04/19 08:38:00;;;;;;;4.10;3.90;;;;;;;8.65;79.78;101635.94;4430084;31;20190;-66
2021/04/19 08:40:26;;;;;;;3.53;3.42;;;;;;;8.75;78.93;101634.75;4428452;32;20501;-66
2021/04/19 08:42:52;;;;;;;4.10;3.90;;;;;;;8.83;77.54;101632.78;4431207;31;20072;-65
2021/04/19 08:45:18;;;;;;;3.67;3.53;;;;;;;8.69;78.04;101625.31;4431083;32;20064;-66
2021/04/19 08:47:44;;;;;;;4.05;3.87;;;;;;;8.39;80.12;101646.19;4431081;32;20101;-66
2021/04/19 08:50:11;;;;;;;4.05;3.85;;;;;;;8.93;80.31;101633.34;4434885;32;20182;-66
2021/04/19 08:52:37;;;;;;;4.15;3.92;;;;;;;9.02;79.14;101637.44;4432915;31;21036;-66
2021/04/19 08:55:06;;;;;;;3.90;3.70;;;;;;;9.02;77.58;101625.22;4431640;32;20137;-66
2021/04/19 08:57:32;;;;;;;4.25;4.05;;;;;;;9.08;78.41;101617.19;4430872;32;20102;-67
2021/04/19 08:59:58;;;;;;;3.97;3.78;;;;;;;8.96;76.54;101633.25;4427551;32;20858;-65
2021/04/19 09:02:23;;;;;;;3.97;3.78;;;;;;;8.89;78.79;101624.72;4430055;32;20091;-64
2021/04/19 09:05:01;;;;;;;4.50;4.30;;;;;;;9.32;78.28;101633.87;4422627;31;20728;-64
2021/04/19 09:07:30;;;;;;;4.22;3.83;;;;;;;9.06;77.98;101626.84;4456107;32;20095;-65
2021/04/19 09:09:55;;;;;;;4.57;4.28;;;;;;;8.64;79.76;101629.84;4424230;32;20063;-63
2021/04/19 09:12:22;;;;;;;3.80;3.67;;;;;;;8.38;80.75;101633.19;4430610;32;20059;-63
2021/04/19 09:14:47;;;;;;;3.60;3.50;;;;;;;8.73;78.88;101632.19;4431213;32;22360;-63
2021/04/19 09:17:26;;;;;;;5.70;5.40;;;;;;;9.35;78.68;101623.28;4399045;32;20068;-63
2021/04/19 09:19:58;;;;;;;5.82;5.50;;;;;;;9.92;76.07;101639.78;4390341;32;20075;-63
2021/04/19 09:22:24;;;;;;;5.75;5.45;;;;;;;9.41;73.11;101516.59;4381619;32;20178;-63
2021/04/19 09:25:00;;;;;;;4.30;4.10;;;;;;;10.45;72.06;101644.03;4420867;31;20068;-64
2021/04/19 09:27:48;;;;;;;4.32;4.12;;;;;;;10.94;71.67;101641.34;4437131;32;20069;-64
2021/04/19 09:30:19;;;;;;;4.12;3.92;;;;;;;11.14;70.82;101644.03;4446751;31;20081;-64
2021/04/19 09:32:45;;;;;;;6.57;4.72;;;;;;;11.22;67.74;101637.63;4451098;32;20986;-64
2021/04/19 09:35:14;;;;;;;4.00;3.80;;;;;;;11.78;68.86;101643.19;4426351;32;20217;-64
2021/04/19 09:37:39;;;;;;;4.50;4.25;;;;;;;11.17;69.45;101641.31;4427898;32;20083;-65
2021/04/19 09:40:08;;;;;;;5.45;5.15;;;;;;;11.69;69.15;101629.59;4455028;32;20176;-64
2021/04/19 09:43:05;;;;;;;4.55;4.35;;;;;;;12.42;69.13;101628.19;4430544;32;20067;-64
2021/04/19 09:45:53;;;;;;;4.60;4.40;;;;;;;12.53;66.65;101618.03;4458104;32;20068;-64
2021/04/19 09:48:28;;;;;;;4.45;4.25;;;;;;;12.68;67.72;101628.78;4427225;32;20586;-64
2021/04/19 09:50:54;;;;;;;4.82;4.62;;;;;;;13.04;66.02;101623.56;4453784;31;20607;-64
2021/04/19 09:53:19;;;;;;;4.20;4.00;;;;;;;13.23;65.71;101627.94;4425165;32;20604;-64
2021/04/19 09:55:45;;;;;;;4.60;4.40;;;;;;;13.31;64.12;101633.75;4431005;32;20083;-64
2021/04/19 09:58:10;;;;;;;4.50;4.30;;;;;;;12.02;62.61;101479.16;4427017;32;20060;-64
2021/04/19 10:00:35;;;;;;;4.78;4.47;;;;;;;12.86;63.50;101635.00;4426942;32;20087;-64
2021/04/19 10:03:01;;;;;;;4.70;4.50;;;;;;;12.51;63.34;101640.97;4424847;32;20645;-64
2021/04/19 10:05:26;;;;;;;4.37;4.15;;;;;;;12.51;64.10;101635.69;4430975;31;20071;-64
2021/04/19 10:07:51;;;;;;;5.12;4.87;;;;;;;12.20;65.35;101636.19;4440431;32;20072;-65
2021/04/19 10:10:18;;;;;;;4.22;4.03;;;;;;;11.72;66.05;101632.09;4433109;32;20106;-65
2021/04/19 10:12:47;;;;;;;5.03;4.72;;;;;;;10.76;66.98;101507.25;4426553;32;20098;-64
2021/04/19 10:15:20;;;;;;;4.37;4.18;;;;;;;11.12;69.28;101635.38;4428604;32;20570;-65
2021/04/19 10:17:45;;;;;;;4.20;4.00;;;;;;;10.52;72.36;101652.53;4431272;31;20075;-63
2021/04/19 10:20:22;;;;;;;5.22;4.82;;;;;;;10.14;73.81;101637.25;4428999;31;20078;-63
2021/04/19 10:23:30;;;;;;;4.70;4.50;;;;;;;9.80;75.11;101634.91;4431191;31;20064;-65
2021/04/19 10:25:55;;;;;;;4.97;4.78;;;;;;;9.94;74.98;101637.06;4389585;32;20073;-64
2021/04/19 10:28:32;;;;;;;4.00;3.80;;;;;;;10.28;74.19;101631.50;4443517;32;20934;-64
2021/04/19 10:31:19;;;;;;;4.60;4.40;;;;;;;10.51;74.13;101629.84;4421631;32;20551;-64
2021/04/19 10:33:49;;;;;;;4.72;4.53;;;;;;;10.53;73.11;101635.91;4440396;32;20153;-65
2021/04/19 10:36:26;;;;;;;4.80;4.60;;;;;;;11.05;71.69;101633.06;4428385;32;20068;-64
2021/04/19 10:38:53;;;;;;;5.03;4.82;;;;;;;11.23;70.96;101634.09;4435193;32;20540;-64
2021/04/19 10:41:36;;;;;;;4.45;4.25;;;;;;;11.39;69.19;101635.19;4432695;31;20609;-64
2021/04/19 10:44:05;;;;;;;5.00;4.80;;;;;;;11.69;69.98;101627.81;4428328;32;20726;-64
2021/04/19 10:46:32;;;;;;;4.25;4.05;;;;;;;12.06;68.89;101628.06;4428531;32;20087;-64
2021/04/19 10:48:59;;;;;;;5.28;5.07;;;;;;;12.62;67.02;101627.28;4428529;31;20084;-66
2021/04/19 10:51:27;;;;;;;4.57;4.37;;;;;;;12.90;66.40;101634.75;4428682;32;20892;-65
2021/04/19 10:53:55;;;;;;;4.95;4.75;;;;;;;13.06;64.15;101591.88;4423602;32;20099;-66
2021/04/19 10:56:21;;;;;;;5.53;5.22;;;;;;;13.19;64.42;101622.00;4388491;32;20079;-66
2021/04/19 10:58:48;;;;;;;6.00;5.70;;;;;;;13.42;65.04;101617.41;4389301;32;20096;-66
2021/04/19 11:01:13;;;;;;;4.75;4.55;;;;;;;13.36;62.21;101614.13;4411649;32;20099;-66
2021/04/19 11:03:39;;;;;;;5.12;4.82;;;;;;;13.51;61.14;101616.94;4429617;32;20076;-67
2021/04/19 11:06:05;;;;;;;5.20;4.90;;;;;;;13.00;63.03;101608.00;4423461;32;20064;-66
2021/04/19 11:08:47;;;;;;;4.70;4.50;;;;;;;11.36;67.98;101616.91;4428266;32;20087;-66
2021/04/19 11:11:34;;;;;;;4.22;4.03;;;;;;;11.92;68.67;101605.81;4436707;32;20068;-65
2021/04/19 11:14:21;;;;;;;5.78;5.40;;;;;;;11.92;67.61;101597.06;4454239;32;20079;-65
2021/04/19 11:17:03;;;;;;;4.90;4.65;;;;;;;11.50;69.58;101576.91;4458989;31;20168;-65
2021/04/19 11:19:30;;;;;;;4.10;3.90;;;;;;;11.54;69.21;101607.41;4443786;32;20679;-67
2021/04/19 11:21:56;;;;;;;5.05;4.85;;;;;;;11.86;68.93;101603.41;4423824;32;20090;-67
2021/04/19 11:24:21;;;;;;;4.57;4.22;;;;;;;11.95;68.33;101600.44;4431648;32;20072;-67
2021/04/19 11:26:47;;;;;;;4.87;4.50;;;;;;;10.88;68.07;101450.72;4439660;32;20102;-64
2021/04/19 11:29:13;;;;;;;4.30;4.10;;;;;;;11.87;68.05;101588.53;4429268;32;20067;-65
2021/04/19 11:31:43;;;;;;;4.40;4.20;;;;;;;11.51;69.94;101547.94;4429938;32;20644;-64
2021/04/19 11:34:11;;;;;;;4.15;3.92;;;;;;;11.97;68.66;101580.19;4428833;32;20079;-67
2021/04/19 11:36:40;;;;;;;4.22;4.03;;;;;;;12.16;67.22;101529.34;4427884;32;21058;-64
2021/04/19 11:39:21;;;;;;;4.85;4.65;;;;;;;12.37;65.47;101585.44;4428609;32;20090;-64